Time;durP1;ratioP1;P1;durP2;ratioP2;P2;SDS_P1;SDS_P2;PMS_P1;PMS_P2;Temp;Humidity;BMP_temperature;BMP_pressure;BME280_temperature;BME280_humidity;BME280_pressure;Samples;Min_cycle;Max_cycle;Signal;HPM_P1;HPM_P2
2021/11/22 00:01:06;;;;;;;;;;;5.20;99.90;;;;;;8414646;28;20075;-71
2021/11/22 00:05:09;;;;;;;;;;;5.20;99.90;;;;;;8416983;28;19920;-74
2021/11/22 00:09:10;;;;;;;2.45;0.70;;;5.10;99.90;;;;;;8418113;28;20276;-74
2021/11/22 00:13:12;;;;;;;1.13;0.40;;;5.10;99.90;;;;;;8421670;28;20043;-74
2021/11/22 00:17:14;;;;;;;1.33;0.82;;;5.20;99.90;;;;;;8428387;28;19927;-74
2021/11/22 00:21:16;;;;;;;2.45;0.90;;;5.20;99.90;;;;;;8423550;28;20055;-74
2021/11/22 00:25:19;;;;;;;2.30;0.90;;;5.20;99.90;;;;;;8419499;28;20491;-74
2021/11/22 00:29:21;;;;;;;2.47;0.90;;;5.20;99.90;;;;;;8422969;28;20103;-75
2021/11/22 00:33:22;;;;;;;2.85;0.60;;;5.20;99.90;;;;;;8421910;28;20063;-74
2021/11/22 00:37:26;;;;;;;1.10;0.50;;;5.20;99.90;;;;;;8423854;28;19924;-74
2021/11/22 00:41:30;;;;;;;2.22;0.60;;;5.20;99.90;;;;;;8422365;28;20079;-74
2021/11/22 00:45:33;;;;;;;0.77;0.40;;;5.20;99.90;;;;;;8421887;28;20131;-74
2021/11/22 00:49:36;;;;;;;2.03;0.60;;;5.20;99.90;;;;;;8408072;28;20147;-74
2021/11/22 00:53:38;;;;;;;2.35;0.70;;;5.20;99.90;;;;;;8428705;28;20288;-74
2021/11/22 00:57:40;;;;;;;0.80;0.47;;;5.20;99.90;;;;;;8413630;28;20068;-74
2021/11/22 01:01:42;;;;;;;1.50;0.50;;;5.20;99.90;;;;;;8409973;28;20192;-74
2021/11/22 01:05:44;;;;;;;3.28;0.95;;;5.20;99.90;;;;;;8422463;28;20048;-74
2021/11/22 01:09:46;;;;;;;;;;;5.10;99.90;;;;;;8422708;28;20449;-74
2021/11/22 01:13:47;;;;;;;2.50;0.70;;;5.10;99.90;;;;;;8422473;28;19927;-74
2021/11/22 01:17:51;;;;;;;0.88;0.50;;;5.10;99.90;;;;;;8416046;28;19924;-74
2021/11/22 01:21:53;;;;;;;0.80;0.40;;;5.10;99.90;;;;;;8417205;28;20472;-74
2021/11/22 01:25:55;;;;;;;1.40;0.60;;;5.10;99.90;;;;;;8455005;27;20123;-74
2021/11/22 01:29:57;;;;;;;1.30;0.40;;;5.10;99.90;;;;;;8419470;28;20078;-74
2021/11/22 01:33:58;;;;;;;0.93;0.50;;;5.00;99.90;;;;;;8424915;28;20496;-74
2021/11/22 01:38:00;;;;;;;1.00;0.70;;;5.00;99.90;;;;;;8406671;28;20040;-74
2021/11/22 01:42:02;;;;;;;3.35;0.75;;;5.00;99.90;;;;;;8415848;28;20518;-74
2021/11/22 01:46:03;;;;;;;1.20;0.50;;;5.00;99.90;;;;;;8416651;28;20040;-74
2021/11/22 01:50:07;;;;;;;1.92;0.52;;;5.00;99.90;;;;;;8428577;28;20067;-74
2021/11/22 01:54:09;;;;;;;2.83;1.02;;;5.00;99.90;;;;;;8415983;28;20068;-74
2021/11/22 01:58:11;;;;;;;2.10;0.50;;;5.00;99.90;;;;;;8413475;28;20471;-73
2021/11/22 02:02:13;;;;;;;0.82;0.50;;;4.90;99.90;;;;;;8415895;28;20690;-74
2021/11/22 02:06:15;;;;;;;1.20;0.40;;;4.90;99.90;;;;;;8412602;28;20443;-74
2021/11/22 02:10:18;;;;;;;0.90;0.50;;;4.90;99.90;;;;;;8405883;28;20067;-74
2021/11/22 02:14:20;;;;;;;1.33;0.60;;;4.90;99.90;;;;;;8409022;28;20075;-74
2021/11/22 02:18:21;;;;;;;;;;;4.90;99.90;;;;;;8412872;28;20354;-73
2021/11/22 02:22:24;;;;;;;;;;;4.80;99.90;;;;;;8405860;28;19932;-73
2021/11/22 02:26:26;;;;;;;;;;;4.80;99.90;;;;;;8418631;28;20410;-73
2021/11/22 02:30:30;;;;;;;;;;;4.80;99.90;;;;;;8421147;28;20019;-73
2021/11/22 02:34:32;;;;;;;;;;;4.80;99.90;;;;;;8417571;28;19990;-73
2021/11/22 02:38:35;;;;;;;;;;;4.80;99.90;;;;;;8413967;28;20295;-74
2021/11/22 02:42:40;;;;;;;1.95;0.52;;;4.70;99.90;;;;;;8414331;28;20027;-74
2021/11/22 02:46:42;;;;;;;2.92;0.80;;;4.70;99.90;;;;;;8413902;28;20067;-74
2021/11/22 02:50:45;;;;;;;1.17;0.40;;;4.70;99.90;;;;;;8414764;28;20143;-74
2021/11/22 02:54:50;;;;;;;2.45;0.75;;;4.70;99.90;;;;;;8427879;28;20044;-74
2021/11/22 02:58:52;;;;;;;2.58;0.50;;;4.70;99.90;;;;;;8413593;28;20083;-74
2021/11/22 03:02:54;;;;;;;2.05;0.50;;;4.70;99.90;;;;;;8419647;28;20074;-74
2021/11/22 03:06:56;;;;;;;;;;;4.70;99.90;;;;;;8430122;28;20447;-74
2021/11/22 03:10:57;;;;;;;;;;;4.70;99.90;;;;;;8407809;28;19962;-73
2021/11/22 03:15:00;;;;;;;;;;;4.60;99.90;;;;;;8405925;28;20358;-73
2021/11/22 03:19:02;;;;;;;;;;;4.60;99.90;;;;;;8423027;28;20356;-73
2021/11/22 03:23:03;;;;;;;;;;;4.60;99.90;;;;;;8428459;28;20293;-73
2021/11/22 03:27:05;;;;;;;;;;;4.60;99.90;;;;;;8423347;28;19959;-73
2021/11/22 03:31:07;;;;;;;;;;;4.60;99.90;;;;;;8416881;28;20023;-73
2021/11/22 03:35:09;;;;;;;;;;;4.60;99.90;;;;;;8431098;28;19942;-73
2021/11/22 03:39:17;;;;;;;;;;;4.50;99.90;;;;;;8411069;28;19971;-73
2021/11/22 03:47:29;;;;;;;;;;;4.50;99.90;;;;;;8410381;28;19935;-73
2021/11/22 03:51:31;;;;;;;;;;;4.50;99.90;;;;;;8428953;28;19920;-73
2021/11/22 03:55:32;;;;;;;;;;;4.50;99.90;;;;;;8423881;28;19931;-73
2021/11/22 03:59:35;;;;;;;;;;;4.50;99.90;;;;;;8410945;28;19955;-74
2021/11/22 04:03:36;;;;;;;;;;;4.40;99.90;;;;;;8420758;28;20360;-74
2021/11/22 04:07:39;;;;;;;;;;;4.40;99.90;;;;;;8425416;28;19919;-73
2021/11/22 04:11:41;;;;;;;;;;;4.40;99.90;;;;;;8406850;28;19963;-73
2021/11/22 04:15:42;;;;;;;;;;;4.40;99.90;;;;;;8413478;28;19931;-73
2021/11/22 04:19:44;;;;;;;;;;;4.40;99.90;;;;;;8415922;28;19982;-74
2021/11/22 04:23:46;;;;;;;;;;;4.30;99.90;;;;;;8413075;28;19939;-74
2021/11/22 04:27:48;;;;;;;;;;;4.30;99.90;;;;;;8436058;28;19968;-74
2021/11/22 04:31:50;;;;;;;;;;;4.30;99.90;;;;;;8417988;28;19924;-73
2021/11/22 04:35:51;;;;;;;;;;;4.30;99.90;;;;;;8412958;28;19931;-74
2021/11/22 04:39:53;;;;;;;;;;;4.30;99.90;;;;;;8430370;28;20026;-73
2021/11/22 04:43:54;;;;;;;;;;;4.20;99.90;;;;;;8414821;28;20372;-73
2021/11/22 04:47:57;;;;;;;;;;;4.20;99.90;;;;;;8415511;28;19927;-73
2021/11/22 04:51:59;;;;;;;;;;;4.20;99.90;;;;;;8417311;28;20413;-73
2021/11/22 04:56:00;;;;;;;;;;;4.20;99.90;;;;;;8423326;28;19927;-73
2021/11/22 05:00:04;;;;;;;;;;;4.20;99.90;;;;;;8429921;28;19927;-72
2021/11/22 05:04:05;;;;;;;;;;;4.10;99.90;;;;;;8422001;28;20332;-73
2021/11/22 05:08:08;;;;;;;;;;;4.10;99.90;;;;;;8413794;28;19975;-72
2021/11/22 05:12:09;;;;;;;;;;;4.10;99.90;;;;;;8413971;28;19969;-73
2021/11/22 05:16:11;;;;;;;;;;;4.00;99.90;;;;;;8410750;28;19974;-72
2021/11/22 05:20:13;;;;;;;;;;;4.00;99.90;;;;;;8417884;28;19966;-73
2021/11/22 05:24:14;;;;;;;;;;;3.90;99.90;;;;;;8422829;28;20017;-73
2021/11/22 05:28:16;;;;;;;;;;;3.90;99.90;;;;;;8422133;28;19928;-73
2021/11/22 05:32:18;;;;;;;;;;;3.80;99.90;;;;;;8420323;28;20283;-72
2021/11/22 05:36:20;;;;;;;;;;;3.80;99.90;;;;;;8435141;28;19919;-73
2021/11/22 05:40:22;;;;;;;;;;;3.70;99.90;;;;;;8423157;28;19971;-73
2021/11/22 05:44:24;;;;;;;;;;;3.60;99.90;;;;;;8422111;28;20376;-73
2021/11/22 05:48:25;;;;;;;;;;;3.60;99.90;;;;;;8403679;28;19971;-72
2021/11/22 05:52:28;;;;;;;;;;;3.50;99.90;;;;;;8412523;28;20304;-73
2021/11/22 05:56:30;;;;;;;;;;;3.50;99.90;;;;;;8406783;28;20037;-73
2021/11/22 06:00:32;;;;;;;;;;;3.40;99.90;;;;;;8406298;28;20015;-73
2021/11/22 06:04:34;;;;;;;;;;;3.40;99.90;;;;;;8408077;28;19936;-73
2021/11/22 06:08:36;;;;;;;;;;;3.30;99.90;;;;;;8419107;28;19928;-73
2021/11/22 06:12:38;;;;;;;;;;;3.30;99.90;;;;;;8412961;28;20634;-73
2021/11/22 06:16:39;;;;;;;;;;;3.20;99.90;;;;;;8413616;28;19955;-73
2021/11/22 06:20:41;;;;;;;;;;;3.20;99.90;;;;;;8417255;28;19938;-73
2021/11/22 06:24:43;;;;;;;;;;;3.10;99.90;;;;;;8410334;28;19992;-73
2021/11/22 06:28:45;;;;;;;;;;;3.00;99.90;;;;;;8429131;28;19967;-72
2021/11/22 06:32:47;;;;;;;;;;;3.00;99.90;;;;;;8407392;28;20002;-73
2021/11/22 06:36:48;;;;;;;;;;;2.90;99.90;;;;;;8404530;28;20022;-73
2021/11/22 06:40:50;;;;;;;;;;;2.80;99.90;;;;;;8415975;28;19962;-73
2021/11/22 06:44:51;;;;;;;;;;;2.80;99.90;;;;;;8420161;28;19919;-73
2021/11/22 06:48:53;;;;;;;;;;;2.80;99.90;;;;;;8418805;28;19955;-72
2021/11/22 06:52:55;;;;;;;;;;;2.70;99.90;;;;;;8411762;28;19924;-73
2021/11/22 06:56:56;;;;;;;;;;;2.70;99.90;;;;;;8417925;28;19959;-73
2021/11/22 07:00:58;;;;;;;;;;;2.60;99.90;;;;;;8415582;28;19924;-73
2021/11/22 07:05:00;;;;;;;;;;;2.60;99.90;;;;;;8414869;28;19934;-72
2021/11/22 07:09:02;;;;;;;;;;;2.50;99.90;;;;;;8419973;28;19963;-73
2021/11/22 07:13:04;;;;;;;;;;;2.50;99.90;;;;;;8414552;28;20037;-73
2021/11/22 07:17:05;;;;;;;;;;;2.50;99.90;;;;;;8412184;28;19919;-73
2021/11/22 07:21:08;;;;;;;;;;;2.40;99.90;;;;;;8413946;28;19923;-72
2021/11/22 07:25:10;;;;;;;;;;;2.40;99.90;;;;;;8427787;28;19920;-73
2021/11/22 07:29:11;;;;;;;;;;;2.30;99.90;;;;;;8430566;28;19927;-72
2021/11/22 07:33:13;;;;;;;;;;;2.30;99.90;;;;;;8444556;28;19927;-73
2021/11/22 07:37:15;;;;;;;;;;;2.30;99.90;;;;;;8438822;28;19995;-73
2021/11/22 07:41:17;;;;;;;;;;;2.30;99.90;;;;;;8431280;28;19921;-73
2021/11/22 07:45:19;;;;;;;;;;;2.20;99.90;;;;;;8437214;28;19985;-73
2021/11/22 07:49:21;;;;;;;;;;;2.20;99.90;;;;;;8426495;28;20390;-73
2021/11/22 07:53:22;;;;;;;;;;;2.20;99.90;;;;;;8428033;28;19923;-72
2021/11/22 07:57:24;;;;;;;;;;;2.20;99.90;;;;;;8427750;28;19970;-72
2021/11/22 08:01:25;;;;;;;;;;;2.20;99.90;;;;;;8429369;28;19959;-72
2021/11/22 08:05:30;;;;;;;;;;;2.30;99.90;;;;;;8432529;28;19930;-73
2021/11/22 08:09:34;;;;;;;;;;;2.30;99.90;;;;;;8419475;28;19920;-73
2021/11/22 08:13:35;;;;;;;;;;;2.40;99.90;;;;;;8452154;27;19924;-73
2021/11/22 08:17:39;;;;;;;;;;;2.40;99.90;;;;;;8434869;28;19919;-73
2021/11/22 08:21:41;;;;;;;;;;;2.50;99.90;;;;;;8426909;28;20343;-73
2021/11/22 08:25:43;;;;;;;;;;;2.50;99.90;;;;;;8428048;28;19919;-73
2021/11/22 08:29:45;;;;;;;;;;;2.60;99.90;;;;;;8432986;28;19954;-73
2021/11/22 08:33:46;;;;;;;;;;;2.70;99.90;;;;;;8427924;28;19962;-73
2021/11/22 08:37:48;;;;;;;;;;;2.80;99.90;;;;;;8424687;28;20405;-73
2021/11/22 08:41:50;;;;;;;;;;;2.90;99.90;;;;;;8429387;28;19966;-73
2021/11/22 08:45:52;;;;;;;;;;;3.10;99.90;;;;;;8434068;28;19958;-72
2021/11/22 08:49:53;;;;;;;;;;;3.30;99.90;;;;;;8436785;28;19920;-73
2021/11/22 08:53:55;;;;;;;;;;;3.60;99.90;;;;;;8433073;28;19927;-73
2021/11/22 08:57:57;;;;;;;;;;;4.00;99.90;;;;;;8430097;28;19919;-73
2021/11/22 09:01:58;;;;;;;;;;;4.50;99.90;;;;;;8433266;28;19978;-73
2021/11/22 09:06:00;;;;;;;;;;;5.00;99.90;;;;;;8436691;28;19920;-73
2021/11/22 09:10:03;;;;;;;;;;;5.60;99.90;;;;;;8427168;28;20754;-73
2021/11/22 09:14:07;;;;;;;;;;;6.20;99.90;;;;;;8421565;28;19920;-74
2021/11/22 09:18:09;;;;;;;;;;;6.60;99.90;;;;;;8437949;28;20279;-74
2021/11/22 09:22:11;;;;;;;;;;;6.80;99.90;;;;;;8426068;28;20035;-73
2021/11/22 09:26:14;;;;;;;;;;;6.90;99.90;;;;;;8432974;28;19965;-73
2021/11/22 09:30:16;;;;;;;;;;;6.80;99.90;;;;;;8426716;28;20338;-73
2021/11/22 09:34:18;;;;;;;;;;;6.70;99.90;;;;;;8426945;28;20286;-73
2021/11/22 09:38:19;;;;;;;;;;;6.70;99.90;;;;;;8427320;28;20415;-73
2021/11/22 09:42:21;;;;;;;;;;;6.70;99.90;;;;;;8433478;28;19970;-73
2021/11/22 09:46:24;;;;;;;;;;;6.70;99.90;;;;;;8425174;28;19959;-74
2021/11/22 09:50:27;;;;;;;;;;;6.70;99.90;;;;;;8423278;28;19920;-73
2021/11/22 09:54:29;;;;;;;;;;;6.80;99.90;;;;;;8426046;28;20383;-73
2021/11/22 09:58:30;;;;;;;;;;;7.00;99.90;;;;;;8423001;28;19967;-73
2021/11/22 10:02:44;;;;;;;;;;;7.20;99.90;;;;;;8423393;28;20026;-74
2021/11/22 10:07:02;;;;;;;;;;;7.50;99.90;;;;;;8424330;28;19924;-74
2021/11/22 10:11:08;;;;;;;;;;;7.60;99.90;;;;;;8455631;27;20009;-73
2021/11/22 10:15:09;;;;;;;;;;;7.70;99.90;;;;;;8432392;28;20588;-73
2021/11/22 10:19:18;;;;;;;;;;;7.90;99.90;;;;;;8427909;28;19970;-73
2021/11/22 10:23:21;;;;;;;;;;;8.20;99.90;;;;;;8421381;28;20356;-74
2021/11/22 10:27:35;;;;;;;;;;;8.60;99.90;;;;;;8431695;28;19974;-73
2021/11/22 10:31:37;;;;;;;;;;;9.40;99.90;;;;;;8418281;28;19971;-74
2021/11/22 10:35:40;;;;;;;;;;;10.30;99.90;;;;;;8423788;28;19950;-74
2021/11/22 10:39:42;;;;;;;;;;;11.10;99.90;;;;;;8419231;28;19927;-74
2021/11/22 10:43:52;;;;;;;;;;;11.80;99.90;;;;;;8421274;28;20299;-73
2021/11/22 10:47:55;;;;;;;;;;;12.60;99.90;;;;;;8420828;28;19940;-74
2021/11/22 10:52:57;;;;;;;;;;;13.20;99.90;;;;;;8426250;28;19928;-74
2021/11/22 10:56:41;;;;;;;;;;;13.70;99.90;;;;;;8406857;28;19960;-74
2021/11/22 11:00:42;;;;;;;;;;;14.30;99.90;;;;;;8419753;28;19919;-74
2021/11/22 11:04:44;;;;;;;;;;;14.70;99.90;;;;;;8422175;28;19920;-74
2021/11/22 11:08:50;;;;;;;;;;;15.20;99.90;;;;;;8418213;28;19928;-74
2021/11/22 11:12:54;;;;;;;;;;;15.60;99.90;;;;;;8416279;28;20344;-74
2021/11/22 11:17:08;;;;;;;;;;;16.10;99.90;;;;;;8418006;28;19920;-74
2021/11/22 11:21:09;;;;;;;;;;;16.40;99.90;;;;;;8422253;28;19933;-74
2021/11/22 11:25:11;;;;;;;;;;;16.70;99.90;;;;;;8416386;28;19974;-74
2021/11/22 11:29:17;;;;;;;;;;;17.00;99.90;;;;;;8421379;28;19977;-74
2021/11/22 11:33:19;;;;;;;;;;;17.40;99.90;;;;;;8425473;28;19920;-74
2021/11/22 11:37:49;;;;;;;;;;;17.70;99.90;;;;;;8429554;28;20291;-74
2021/11/22 11:42:08;;;;;;;;;;;17.90;99.90;;;;;;8429771;28;19924;-74
2021/11/22 11:46:29;;;;;;;;;;;17.80;99.90;;;;;;8431822;28;19924;-74
2021/11/22 11:50:33;;;;;;;;;;;17.60;99.90;;;;;;8419731;28;20010;-74
2021/11/22 11:54:40;;;;;;;;;;;17.50;99.90;;;;;;8419790;28;20335;-74
2021/11/22 11:58:41;;;;;;;;;;;17.50;99.90;;;;;;8422593;28;19920;-74
2021/11/22 12:02:57;;;;;;;;;;;17.70;99.90;;;;;;8422209;28;20292;-74
2021/11/22 12:06:59;;;;;;;;;;;18.00;99.90;;;;;;8424534;28;20251;-74
2021/11/22 12:11:02;;;;;;;;;;;18.40;99.90;;;;;;8430434;28;20009;-75
2021/11/22 12:15:15;;;;;;;;;;;18.80;99.90;;;;;;8434705;28;20443;-74
2021/11/22 12:19:40;;;;;;;;;;;19.00;99.90;;;;;;8435878;28;19935;-75
2021/11/22 12:23:46;;;;;;;;;;;18.80;99.90;;;;;;8428740;28;19940;-74
2021/11/22 12:27:47;;;;;;;;;;;18.70;99.90;;;;;;8456650;27;19924;-75
2021/11/22 12:31:49;;;;;;;;;;;18.70;99.90;;;;;;8436183;28;19924;-74
2021/11/22 12:36:10;;;;;;;;;;;18.50;99.90;;;;;;8426839;28;20347;-75
2021/11/22 12:40:16;;;;;;;;;;;18.20;99.90;;;;;;8423634;28;19958;-74
2021/11/22 12:44:20;;;;;;;;;;;18.10;99.90;;;;;;8421983;28;19926;-74
2021/11/22 12:48:32;;;;;;;;;;;18.30;99.90;;;;;;8426529;28;19959;-74
2021/11/22 12:52:36;;;;;;;;;;;18.70;99.90;;;;;;8404016;28;20390;-74
2021/11/22 12:56:38;;;;;;;;;;;19.30;99.90;;;;;;8397081;28;19971;-75
2021/11/22 13:00:41;;;;;;;;;;;20.10;99.90;;;;;;8393496;28;19927;-74
2021/11/22 13:04:44;;;;;;;;;;;20.90;99.90;;;;;;8393915;28;20015;-75
2021/11/22 13:08:46;;;;;;;;;;;21.60;99.90;;;;;;8391492;28;19936;-74
2021/11/22 13:13:10;;;;;;;;;;;21.20;99.90;;;;;;8392934;28;20294;-74
2021/11/22 13:17:12;;;;;;;;;;;19.90;99.90;;;;;;8402773;28;20023;-74
2021/11/22 13:21:17;;;;;;;;;;;18.70;99.90;;;;;;8401802;28;20240;-75
2021/11/22 13:25:20;;;;;;;;;;;17.70;99.90;;;;;;8399316;28;19920;-74
2021/11/22 13:29:25;;;;;;;;;;;17.00;99.90;;;;;;8399136;28;19959;-74
2021/11/22 13:33:28;;;;;;;;;;;16.40;99.90;;;;;;8404954;28;20008;-75
2021/11/22 13:37:32;;;;;;;;;;;16.00;99.90;;;;;;8400323;28;20023;-74
2021/11/22 13:41:34;;;;;;;;;;;15.60;99.90;;;;;;8395372;28;20015;-74
2021/11/22 13:45:36;;;;;;;;;;;15.30;99.90;;;;;;8397476;28;19962;-74
2021/11/22 13:49:37;;;;;;;;;;;15.10;99.40;;;;;;8397766;28;19920;-74
2021/11/22 13:53:52;;;;;;;;;;;14.80;99.10;;;;;;8398281;28;19963;-73
2021/11/22 13:58:03;;;;;;;;;;;14.50;99.00;;;;;;8398782;28;19924;-74
2021/11/22 14:02:06;;;;;;;;;;;14.40;98.90;;;;;;8405728;28;20340;-75
2021/11/22 14:06:08;;;;;;;;;;;14.30;98.60;;;;;;8407952;28;19936;-74
2021/11/22 14:10:10;;;;;;;;;;;14.20;98.50;;;;;;8403382;28;19920;-74
2021/11/22 14:14:16;;;;;;;;;;;14.10;98.40;;;;;;8396878;28;19991;-74
2021/11/22 14:18:20;;;;;;;;;;;13.90;98.30;;;;;;8401073;28;20291;-73
2021/11/22 14:22:22;;;;;;;;;;;13.80;98.40;;;;;;8400805;28;19924;-74
2021/11/22 14:26:29;;;;;;;;;;;13.80;98.30;;;;;;8394824;28;21149;-74
2021/11/22 14:30:32;;;;;;;;;;;13.80;98.50;;;;;;8394829;28;19928;-74
2021/11/22 14:34:35;;;;;;;;;;;13.90;98.80;;;;;;8401383;28;19955;-74
2021/11/22 14:38:39;;;;;;;;;;;14.40;99.50;;;;;;8416341;27;19959;-77
2021/11/22 14:42:41;;;;;;;;;;;15.40;99.70;;;;;;8394050;28;19931;-74
2021/11/22 14:46:47;;;;;;;;;;;16.60;99.50;;;;;;8395021;27;19969;-74
2021/11/22 14:51:13;;;;;;;;;;;17.10;99.10;;;;;;8397321;28;19950;-74
2021/11/22 14:55:16;;;;;;;;;;;16.90;98.50;;;;;;8394144;28;20061;-74
2021/11/22 14:59:46;;;;;;;;;;;17.10;98.50;;;;;;8390991;28;19920;-74
2021/11/22 15:03:49;;;;;;;;;;;17.50;98.20;;;;;;8391806;28;20004;-74
2021/11/22 15:07:50;;;;;;;;;;;17.60;97.90;;;;;;8394210;28;19967;-74
2021/11/22 15:11:56;;;;;;;;;;;17.50;97.40;;;;;;8410256;28;19928;-74
2021/11/22 15:15:58;;;;;;;;;;;17.30;97.10;;;;;;8391178;28;19920;-74
2021/11/22 15:20:01;;;;;;;;;;;17.10;96.70;;;;;;8399821;28;20402;-76
2021/11/22 15:24:02;;;;;;;;;;;16.80;96.40;;;;;;8414241;28;19924;-73
2021/11/22 15:28:06;;;;;;;;;;;16.40;96.10;;;;;;8394973;28;20035;-74
2021/11/22 15:32:09;;;;;;;;;;;15.90;95.90;;;;;;8406256;28;20006;-74
2021/11/22 15:36:11;;;;;;;;;;;15.30;95.50;;;;;;8394316;28;19975;-73
2021/11/22 15:40:15;;;;;;;;;;;14.50;95.40;;;;;;8387096;28;19928;-73
2021/11/22 15:44:16;;;;;;;;;;;13.80;95.30;;;;;;8390582;28;20023;-73
2021/11/22 15:48:18;;;;;;;;;;;13.20;95.30;;;;;;8392447;28;20130;-73
2021/11/22 15:52:20;;;;;;;;;;;12.70;95.30;;;;;;8398058;28;19968;-73
2021/11/22 15:56:22;;;;;;;;;;;12.20;95.30;;;;;;8389917;28;20006;-74
2021/11/22 16:00:23;;;;;;;;;;;11.80;95.30;;;;;;8395516;28;19946;-74
2021/11/22 16:04:25;;;;;;;;;;;11.60;95.40;;;;;;8397909;27;19967;-74
2021/11/22 16:08:27;;;;;;;;;;;11.30;95.40;;;;;;8406339;28;19927;-74
2021/11/22 16:12:28;;;;;;;;;;;11.10;95.40;;;;;;8394473;28;19990;-73
2021/11/22 16:16:30;;;;;;;;;;;10.80;95.40;;;;;;8392569;28;19928;-73
2021/11/22 16:20:32;;;;;;;;;;;10.70;95.40;;;;;;8394145;28;20276;-73
2021/11/22 16:24:34;;;;;;;;;;;10.50;95.30;;;;;;8391977;28;20004;-74
2021/11/22 16:28:36;;;;;;;;;;;10.30;95.20;;;;;;8388703;28;20244;-73
2021/11/22 16:32:37;;;;;;;;;;;10.10;95.20;;;;;;8386752;28;19944;-73
2021/11/22 16:36:42;;;;;;;;;;;9.90;95.70;;;;;;8393331;28;19956;-73
2021/11/22 16:40:44;;;;;;;;;;;9.80;95.80;;;;;;8394853;28;20417;-73
2021/11/22 16:44:46;;;;;;;;;;;9.60;95.80;;;;;;8399381;28;19924;-73
2021/11/22 16:48:48;;;;;;;;;;;9.50;95.80;;;;;;8402229;28;19963;-74
2021/11/22 16:52:50;;;;;;;;;;;9.30;95.80;;;;;;8394007;28;19984;-73
2021/11/22 16:56:52;;;;;;;;;;;9.20;95.90;;;;;;8389765;28;19933;-73
2021/11/22 17:00:54;;;;;;;;;;;9.10;95.90;;;;;;8401684;28;19964;-73
2021/11/22 17:05:01;;;;;;;;;;;9.10;95.90;;;;;;8408361;28;20252;-74
2021/11/22 17:09:03;;;;;;;;;;;9.00;96.00;;;;;;8394182;28;20028;-73
2021/11/22 17:13:06;;;;;;;;;;;9.00;96.10;;;;;;8424006;27;19925;-73
2021/11/22 17:17:08;;;;;;;;;;;8.90;96.00;;;;;;8394749;28;19924;-73
2021/11/22 17:21:09;;;;;;;;;;;8.80;96.00;;;;;;8393227;28;19966;-73
2021/11/22 17:25:11;;;;;;;;;;;8.70;96.00;;;;;;8424749;27;19935;-73
2021/11/22 17:29:13;;;;;;;;;;;8.60;95.90;;;;;;8390726;28;19963;-73
2021/11/22 17:33:14;;;;;;;;;;;8.40;95.90;;;;;;8395356;28;19960;-73
2021/11/22 17:37:16;;;;;;;;;;;8.30;95.90;;;;;;8395892;28;19955;-73
2021/11/22 17:41:18;;;;;;;;;;;8.20;95.90;;;;;;8397104;28;19924;-73
2021/11/22 17:45:22;;;;;;;;;;;8.10;95.90;;;;;;8404805;28;19924;-73
2021/11/22 17:49:24;;;;;;;;;;;8.00;95.80;;;;;;8392546;28;20338;-73
2021/11/22 17:53:26;;;;;;;;;;;7.90;95.70;;;;;;8410588;27;19952;-73
2021/11/22 17:57:27;;;;;;;;;;;7.90;95.70;;;;;;8391640;28;19931;-73
2021/11/22 18:01:31;;;;;;;;;;;7.70;95.70;;;;;;8404808;28;19928;-73
2021/11/22 18:05:33;;;;;;;;;;;7.60;95.70;;;;;;8400737;28;19966;-73
2021/11/22 18:09:35;;;;;;;;;;;7.50;95.60;;;;;;8397398;28;20023;-73
2021/11/22 18:13:40;;;;;;;;;;;7.40;95.60;;;;;;8392255;28;20027;-73
2021/11/22 18:17:42;;;;;;;;;;;7.30;95.60;;;;;;8395735;28;20411;-73
2021/11/22 18:21:43;;;;;;;;;;;7.20;95.60;;;;;;8409538;27;19920;-73
2021/11/22 18:25:45;;;;;;;;;;;7.10;95.60;;;;;;8409065;27;19924;-73
2021/11/22 18:29:48;;;;;;;;;;;7.00;95.60;;;;;;8389189;28;19924;-74
2021/11/22 18:33:49;;;;;;;;;;;6.90;95.60;;;;;;8392825;28;19924;-73
2021/11/22 18:37:52;;;;;;;;;;;6.80;95.60;;;;;;8394898;28;19961;-73
2021/11/22 18:41:53;;;;;;;;;;;6.60;95.60;;;;;;8395081;28;19975;-73
2021/11/22 18:45:55;;;;;;;;;;;6.60;95.60;;;;;;8391584;28;19963;-73
2021/11/22 18:49:57;;;;;;;;;;;6.60;95.60;;;;;;8396519;28;19927;-73
2021/11/22 18:53:59;;;;;;;;;;;6.50;95.60;;;;;;8391432;28;19920;-74
2021/11/22 18:58:01;;;;;;;;;;;6.50;95.50;;;;;;8394144;28;19970;-73
2021/11/22 19:02:03;;;;;;;;;;;6.50;95.50;;;;;;8397170;28;19963;-73
2021/11/22 19:06:05;;;;;;;;;;;6.40;95.50;;;;;;8403145;28;20100;-73
2021/11/22 19:10:10;;;;;;;;;;;6.30;95.50;;;;;;8386982;28;20367;-73
2021/11/22 19:14:13;;;;;;;;;;;6.20;95.40;;;;;;8391639;28;19968;-74
2021/11/22 19:18:15;;;;;;;;;;;6.10;95.40;;;;;;8392946;28;20176;-73
2021/11/22 19:22:16;;;;;;;;;;;6.00;95.30;;;;;;8405973;28;19924;-73
2021/11/22 19:26:18;;;;;;;;;;;6.00;95.30;;;;;;8390116;28;19955;-73
2021/11/22 19:30:20;;;;;;;;;;;5.90;95.30;;;;;;8389346;28;20363;-73
2021/11/22 19:34:22;;;;;;;;;;;5.80;95.30;;;;;;8402469;28;19921;-73
2021/11/22 19:38:24;;;;;;;;;;;5.80;95.30;;;;;;8387400;28;19944;-73
2021/11/22 19:42:25;;;;;;;;;;;5.60;95.30;;;;;;8387622;28;20015;-73
2021/11/22 19:46:27;;;;;;;;;;;5.60;95.30;;;;;;8386379;28;19924;-73
2021/11/22 19:50:30;;;;;;;;;;;5.50;95.30;;;;;;8386149;28;19931;-73
2021/11/22 19:54:31;;;;;;;;;;;5.40;95.20;;;;;;8384494;28;19956;-73
2021/11/22 19:58:33;;;;;;;;;;;5.30;95.20;;;;;;8387177;28;23887;-73
2021/11/22 20:02:36;;;;;;;;;;;5.20;95.20;;;;;;8402854;28;19931;-73
2021/11/22 20:06:38;;;;;;;;;;;5.20;95.20;;;;;;8385983;28;19939;-74
2021/11/22 20:10:39;;;;;;;;;;;5.10;95.20;;;;;;8388068;28;19952;-73
2021/11/22 20:14:41;;;;;;;;;;;5.00;95.20;;;;;;8389732;28;19967;-73
2021/11/22 20:18:43;;;;;;;;;;;5.00;95.30;;;;;;8385329;28;19967;-73
2021/11/22 20:22:46;;;;;;;;;;;4.90;95.20;;;;;;8386506;28;19955;-73
2021/11/22 20:26:48;;;;;;;;;;;4.80;95.10;;;;;;8387098;28;19928;-73
2021/11/22 20:30:50;;;;;;;;;;;4.80;95.20;;;;;;8395810;28;19931;-73
2021/11/22 20:34:52;;;;;;;;;;;4.70;95.10;;;;;;8409309;27;20210;-73
2021/11/22 20:38:54;;;;;;;;;;;4.70;95.10;;;;;;8408886;28;19928;-73
2021/11/22 20:42:55;;;;;;;;;;;4.60;95.10;;;;;;8394683;28;19935;-73
2021/11/22 20:46:57;;;;;;;;;;;4.60;95.00;;;;;;8395678;28;20055;-73
2021/11/22 20:50:59;;;;;;;;;;;4.60;95.00;;;;;;8405582;28;19978;-73
2021/11/22 20:55:00;;;;;;;;;;;4.50;94.90;;;;;;8395656;28;19927;-73
2021/11/22 20:59:02;;;;;;;;;;;4.30;94.90;;;;;;8392957;28;19956;-73
2021/11/22 21:03:04;;;;;;;;;;;4.30;95.00;;;;;;8392320;28;19970;-73
2021/11/22 21:07:08;;;;;;;;;;;4.20;95.00;;;;;;8398866;28;19954;-73
2021/11/22 21:11:11;;;;;;;;;;;4.20;94.90;;;;;;8390415;28;19921;-73
2021/11/22 21:15:12;;;;;;;;;;;4.10;94.90;;;;;;8400666;28;19955;-73
2021/11/22 21:19:15;;;;;;;;;;;4.00;95.00;;;;;;8417050;27;20030;-73
2021/11/22 21:23:18;;;;;;;;;;;4.00;95.10;;;;;;8401920;28;19924;-73
2021/11/22 21:27:20;;;;;;;;;;;3.90;95.30;;;;;;8393243;28;20303;-73
2021/11/22 21:31:21;;;;;;;;;;;3.80;95.10;;;;;;8390930;28;19979;-72
2021/11/22 21:35:25;;;;;;;;;;;3.80;95.10;;;;;;8392775;28;19955;-73
2021/11/22 21:39:26;;;;;;;;;;;3.70;95.00;;;;;;8403322;27;19924;-73
2021/11/22 21:43:28;;;;;;;;;;;3.70;95.40;;;;;;8395758;28;19924;-73
2021/11/22 21:47:30;;;;;;;;;;;3.60;95.10;;;;;;8390727;28;20015;-73
2021/11/22 21:51:31;;;;;;;;;;;3.60;95.10;;;;;;8392183;28;19975;-73
2021/11/22 21:55:33;;;;;;;;;;;3.60;95.10;;;;;;8392130;28;19924;-73
2021/11/22 21:59:37;;;;;;;;;;;3.60;95.10;;;;;;8389148;28;19929;-73
2021/11/22 22:03:43;;;;;;;;;;;3.60;95.10;;;;;;8416156;28;19926;-73
2021/11/22 22:07:49;;;;;;;;;;;3.50;95.00;;;;;;8427044;28;19920;-73
2021/11/22 22:11:55;;;;;;;;;;;3.50;95.00;;;;;;8424854;28;19966;-73
2021/11/22 22:15:56;;;;;;;;;;;3.40;95.00;;;;;;8431195;28;19924;-73
2021/11/22 22:19:58;;;;;;;;;;;3.30;95.10;;;;;;8426374;28;19930;-72
2021/11/22 22:24:00;;;;;;;;;;;3.30;95.10;;;;;;8423590;28;19963;-72
2021/11/22 22:28:02;;;;;;;;;;;3.20;95.10;;;;;;8424218;28;19931;-72
2021/11/22 22:32:06;;;;;;;;;;;3.20;95.10;;;;;;8424878;28;20387;-72
2021/11/22 22:36:11;;;;;;;;;;;3.20;95.10;;;;;;8427439;28;20395;-72
2021/11/22 22:40:13;;;;;;;;;;;3.20;95.10;;;;;;8427830;28;19966;-72
2021/11/22 22:44:14;;;;;;;;;;;3.10;95.00;;;;;;8422346;28;19927;-73
2021/11/22 22:48:16;;;;;;;;;;;3.10;95.00;;;;;;8429115;28;20354;-72
2021/11/22 22:52:18;;;;;;;;;;;3.00;95.10;;;;;;8419266;28;20402;-72
2021/11/22 22:56:20;;;;;;;;;;;3.00;95.10;;;;;;8421286;28;19963;-72
2021/11/22 23:00:44;;;;;;;;;;;2.90;95.10;;;;;;8415736;28;20281;-73
2021/11/22 23:04:46;;;;;;;;;;;2.90;95.10;;;;;;8418317;28;19930;-72
2021/11/22 23:08:48;;;;;;;;;;;2.90;95.10;;;;;;8421273;28;19958;-72
2021/11/22 23:12:49;;;;;;;;;;;2.80;95.00;;;;;;8422807;28;20418;-72
2021/11/22 23:16:51;;;;;;;;;;;2.90;95.10;;;;;;8416557;28;19975;-73
2021/11/22 23:20:54;;;;;;;;;;;2.90;95.00;;;;;;8417107;28;19955;-72
2021/11/22 23:24:57;;;;;;;;;;;2.80;95.00;;;;;;8433569;28;19963;-72
2021/11/22 23:28:59;;;;;;;;;;;2.80;94.90;;;;;;8418213;28;19963;-72
2021/11/22 23:33:01;;;;;;;;;;;2.80;94.90;;;;;;8421161;28;19920;-72
2021/11/22 23:37:03;;;;;;;;;;;2.80;95.00;;;;;;8428694;28;20383;-73